Terminal Aerodrome Forecast
Issued by NWS Twin Cities, MN

Home | Current Version | Previous Version | Text Only | Print | Product List | Glossary Off
Versions: 1 2 3 4 5 6 7 8 9 10 11 12

000
FTUS43 KMPX 242300
TAFEAU
TAF
KEAU 242339Z 2500/2524 29005KT P6SM OVC025
     FM250300 27004KT 6SM BR OVC015
     FM250600 23006KT 6SM BR OVC008
     FM251000 21007KT 6SM BR OVC006
     FM251500 20005KT P6SM OVC020
     FM251800 17005KT P6SM OVC040=

USA.gov is the U.S. government's official web portal to all federal, state and local government web resources and services.